Miami, Florida
Traffic Map
Current Weather Conditions
Miami, Florida
Broken Clouds Heavy Rain
Broken Clouds
28°
Feels Like: 31°
Wind Chill: 28° Ceiling: 4000
Heat Index: 31° Visibility: 7mi
Dew Point: 23° Wind: 14mph
Humidity: 74% Direction: 290° (WNW)
Pressure: 29.94in Gusts: 0mph
Raw Report DataKMIA 231753Z 29012KT 7SM +RA FEW026 BKN040 28/23 A2994 RMK AO2 RAB32 SLP140 P0014 60014 T02780228 10333 20278 58010
Traffic Incident Summary
Active as of:
Severity:
Category:
InformationThere was an issue retrieving the traffic information for this location. Please try a different location or try again shortly.
Advertisements
Track Severe Weather on mobile